EGCC

Manchester Airport

Manchester, United Kingdom
TAF EGCC 212258Z 2200/2306 16009KT 9999 FEW018 SCT035 BECMG 2200/2203 28010KT TEMPO 2200/2206 5000 SHRA BKN014 BKN020CB PROB30 TEMPO 2200/2206 25015G25KT 2000 +SHRASN SHGS BKN009 TEMPO 2206/2217 4000 SHRASN SHGS BKN012 BKN020CB PROB30 TEMPO 2210/2217 1200 SHSN BKN004 TEMPO 2217/2304 2000 SHSN SHGS BKN003 BKN015CB PROB40 TEMPO 2217/2304 VRB05KT 0500 +SHSN VV///
Issued Valid From Valid To
Jan-21 @ 22:58 UTC
(an hour ago)
Jan-22 @ 00:00 UTC
(10 minutes ago)
Jan-23 @ 06:00 UTC
(-1 days ago)
Jan-22 @ 00:00 to Jan-23 @ 06:00
TAF EGCC 212258Z 2200/2306 16009KT 9999 FEW018 SCT035
Wind Visibility Clouds
160° at 9 knots 10,000+ meters
  • Few at 1,800' AGL
  • Scattered at 3,500' AGL
Temporary  (Probability 30%) Jan-22 @ 00:00 to Jan-22 @ 06:00
PROB30 TEMPO 2200/2206 25015G25KT 2000 +SHRASN SHGS BKN009
Wind Visibility Clouds Conditions
250° at 15 knots
 Gusting to 25 knots
1,996 meters
  • Broken at 900' AGL
  • Heavy Rain
  • Heavy Snow
  • Small hail
Temporary Jan-22 @ 00:00 to Jan-22 @ 06:00
TEMPO 2200/2206 5000 SHRA BKN014 BKN020CB
Visibility Clouds Conditions
5,005 meters
  • Broken at 1,400' AGL
  • Broken at 2,000' AGL
  • Rain
Becoming Jan-22 @ 00:00 to Jan-23 @ 06:00
BECMG 2200/2203 28010KT
Wind Visibility Clouds
280° at 10 knots 10,000+ meters
  • Few at 1,800' AGL
  • Scattered at 3,500' AGL
Temporary Jan-22 @ 06:00 to Jan-22 @ 17:00
TEMPO 2206/2217 4000 SHRASN SHGS BKN012 BKN020CB
Visibility Clouds Conditions
4,007 meters
  • Broken at 1,200' AGL
  • Broken at 2,000' AGL
  • Rain
  • Snow
  • Small hail
Temporary  (Probability 30%) Jan-22 @ 10:00 to Jan-22 @ 17:00
PROB30 TEMPO 2210/2217 1200 SHSN BKN004
Visibility Clouds Conditions
1,207 meters
  • Broken at 400' AGL
  • Snow
Temporary  (Probability 40%) Jan-22 @ 17:00 to Jan-23 @ 04:00
PROB40 TEMPO 2217/2304 VRB05KT 0500 +SHSN VV///
Wind Visibility Conditions
Variable at 5 knots 499 meters
  • Heavy Snow
Temporary Jan-22 @ 17:00 to Jan-23 @ 04:00
TEMPO 2217/2304 2000 SHSN SHGS BKN003 BKN015CB
Visibility Clouds Conditions
1,996 meters
  • Broken at 300' AGL
  • Broken at 1,500' AGL
  • Snow
  • Small hail
TAF EGCC 212258Z 2200/2306 16009KT 9999 FEW018 SCT035 BECMG 2200/2203 28010KT TEMPO 2200/2206 5000 SHRA BKN014 BKN020CB PROB30 TEMPO 2200/2206 25015G25KT 2000 +SHRASN SHGS BKN009 TEMPO 2206/2217 4000 SHRASN SHGS BKN012 BKN020CB PROB30 TEMPO 2210/2217 1200 SHSN BKN004 TEMPO 2217/2304 2000 SHSN SHGS BKN003 BKN015CB PROB40 TEMPO 2217/2304 VRB05KT 0500 +SHSN VV///
Issued Jan-21 @ 22:58 UTC
(an hour ago)
Valid From Jan-22 @ 00:00 UTC
(10 minutes ago)
Valid To Jan-23 @ 06:00 UTC
(-1 days ago)
Jan-22 @ 00:00 - Jan-23 @ 06:00
Wind Visibility
160° at 9 knots 10,000+ meters
Clouds
  • Few at 1,800' AGL
  • Scattered at 3,500' AGL
Probability 30% Temporary Jan-22 @ 00:00 - Jan-22 @ 06:00
Wind Visibility
250° at 15 knots
 Gusting to 25 knots
1,996 meters
Clouds
  • Broken at 900' AGL
Conditions
  • Heavy Rain
  • Heavy Snow
  • Small hail
Temporary Jan-22 @ 00:00 - Jan-22 @ 06:00
Clouds
  • Broken at 1,400' AGL
  • Broken at 2,000' AGL
Conditions
  • Rain
Becoming Jan-22 @ 00:00 - Jan-23 @ 06:00
Wind Visibility
280° at 10 knots 10,000+ meters
Clouds
  • Few at 1,800' AGL
  • Scattered at 3,500' AGL
Temporary Jan-22 @ 06:00 - Jan-22 @ 17:00
Clouds
  • Broken at 1,200' AGL
  • Broken at 2,000' AGL
Conditions
  • Rain
  • Snow
  • Small hail
Probability 30% Temporary Jan-22 @ 10:00 - Jan-22 @ 17:00
Clouds
  • Broken at 400' AGL
Conditions
  • Snow
Probability 40% Temporary Jan-22 @ 17:00 - Jan-23 @ 04:00
Wind Visibility
Variable at 5 knots 499 meters
Conditions
  • Heavy Snow
Temporary Jan-22 @ 17:00 - Jan-23 @ 04:00
Clouds
  • Broken at 300' AGL
  • Broken at 1,500' AGL
Conditions
  • Snow
  • Small hail